Time;durP1;ratioP1;P1;durP2;ratioP2;P2;SDS_P1;SDS_P2;PMS_P1;PMS_P2;Temp;Humidity;BMP_temperature;BMP_pressure;BME280_temperature;BME280_humidity;BME280_pressure;Samples;Min_cycle;Max_cycle;Signal;HPM_P1;HPM_P2
2021/01/13 00:03:39;;;;;;;17.40;4.38;;;1.30;99.90;;;;;;12938608;22;19915;-94
2021/01/13 00:08:40;;;;;;;11.68;4.15;;;1.30;99.90;;;;;;12914716;22;20026;-95
2021/01/13 00:13:43;;;;;;;12.05;3.50;;;1.30;99.90;;;;;;12939057;22;20043;-94
2021/01/13 00:18:44;;;;;;;9.98;3.53;;;1.20;99.90;;;;;;12963425;22;20060;-94
2021/01/13 00:23:47;;;;;;;13.45;4.40;;;1.20;99.90;;;;;;12938623;22;20124;-94
2021/01/13 00:28:52;;;;;;;13.18;3.85;;;1.10;99.90;;;;;;12939413;22;20027;-94
2021/01/13 00:33:54;;;;;;;10.43;3.97;;;1.30;99.90;;;;;;12913464;22;20105;-94
2021/01/13 00:38:56;;;;;;;13.13;4.00;;;1.30;99.90;;;;;;12914184;22;20043;-94
2021/01/13 00:43:58;;;;;;;17.20;3.45;;;1.20;99.90;;;;;;12938795;22;20023;-95
2021/01/13 00:48:59;;;;;;;4.78;2.53;;;1.30;99.90;;;;;;12889940;22;20083;-94
2021/01/13 00:54:01;;;;;;;;;;;1.20;99.90;;;;;;12913945;22;20103;-94
2021/01/13 00:59:02;;;;;;;16.50;5.07;;;1.30;99.90;;;;;;12938736;22;19923;-93
2021/01/13 01:04:06;;;;;;;15.68;5.30;;;1.30;99.90;;;;;;12937851;22;20019;-94
2021/01/13 01:09:08;;;;;;;23.15;4.68;;;1.30;99.90;;;;;;12938569;22;20020;-95
2021/01/13 01:14:11;;;;;;;7.78;3.85;;;1.40;99.90;;;;;;12937684;22;20016;-93
2021/01/13 01:19:12;;;;;;;13.65;4.57;;;1.40;99.90;;;;;;12937785;22;20098;-94
2021/01/13 01:24:14;;;;;;;;;;;1.40;99.90;;;;;;12939027;22;20023;-94
2021/01/13 01:29:15;;;;;;;8.68;3.17;;;1.40;99.90;;;;;;12912846;22;19943;-94
2021/01/13 01:34:20;;;;;;;10.18;3.25;;;1.50;99.90;;;;;;12942390;22;20027;-94
2021/01/13 01:39:23;;;;;;;11.77;2.92;;;1.40;99.90;;;;;;12890964;22;20020;-94
2021/01/13 01:44:24;;;;;;;8.25;2.92;;;1.50;99.90;;;;;;12940328;22;20038;-94
2021/01/13 01:49:26;;;;;;;13.98;2.85;;;1.50;99.90;;;;;;12915547;22;20039;-94
2021/01/13 01:54:34;;;;;;;;;;;1.70;99.90;;;;;;12892187;22;20022;-94
2021/01/13 02:00:05;;;;;;;12.32;3.53;;;1.70;99.90;;;;;;12966187;22;19938;-94
2021/01/13 02:05:12;;;;;;;10.95;2.95;;;1.80;99.90;;;;;;12941252;22;20091;-94
2021/01/13 02:10:14;;;;;;;10.20;2.88;;;1.70;99.90;;;;;;12916934;22;20069;-94
2021/01/13 02:15:19;;;;;;;10.73;2.78;;;1.60;99.90;;;;;;12917087;22;20098;-94
2021/01/13 02:20:25;;;;;;;10.00;2.75;;;1.50;99.90;;;;;;12916788;22;20102;-94
2021/01/13 02:26:04;;;;;;;9.57;3.03;;;1.30;99.90;;;;;;12914990;22;20039;-94
2021/01/13 02:31:42;;;;;;;8.40;2.60;;;1.60;99.90;;;;;;12965146;22;20023;-94
2021/01/13 02:37:18;;;;;;;9.73;3.45;;;1.20;99.90;;;;;;12940253;22;20026;-95
2021/01/13 02:42:29;;;;;;;13.65;3.25;;;1.20;99.90;;;;;;12964725;22;20024;-94
2021/01/13 02:48:02;;;;;;;10.30;3.58;;;1.20;99.90;;;;;;12940629;22;20027;-94
2021/01/13 02:53:15;;;;;;;11.90;3.25;;;1.20;99.90;;;;;;12960707;22;20020;-94
2021/01/13 02:58:39;;;;;;;10.35;3.50;;;1.10;99.90;;;;;;12966078;22;20030;-94
2021/01/13 03:03:43;;;;;;;10.20;4.60;;;1.40;99.90;;;;;;12940836;22;20028;-94
2021/01/13 03:09:00;;;;;;;12.32;3.47;;;1.60;99.90;;;;;;12939449;22;20030;-95
2021/01/13 03:14:14;;;;;;;7.53;3.40;;;1.60;99.90;;;;;;12965539;22;20084;-95
2021/01/13 03:19:23;;;;;;;11.15;4.13;;;1.70;99.90;;;;;;12940110;22;20020;-95
2021/01/13 03:24:56;;;;;;;14.15;3.88;;;1.60;99.90;;;;;;12940158;22;20067;-94
2021/01/13 03:29:59;;;;;;;12.50;4.47;;;1.40;99.90;;;;;;12939934;22;20467;-94
2021/01/13 03:35:08;;;;;;;12.82;3.78;;;1.40;99.90;;;;;;12940598;22;20444;-94
2021/01/13 03:40:15;;;;;;;9.82;3.50;;;1.40;99.90;;;;;;12964234;22;20020;-94
2021/01/13 03:45:47;;;;;;;14.70;3.78;;;1.50;99.90;;;;;;12939153;22;20023;-95
2021/01/13 03:50:52;;;;;;;13.43;3.45;;;1.50;99.90;;;;;;12938874;22;20019;-94
2021/01/13 03:55:57;;;;;;;14.48;3.33;;;1.60;99.90;;;;;;12938843;22;20020;-94
2021/01/13 04:01:22;;;;;;;12.00;3.58;;;1.70;99.90;;;;;;12939235;22;20099;-94
2021/01/13 04:06:25;;;;;;;9.98;3.38;;;1.90;99.90;;;;;;12963180;22;20026;-94
2021/01/13 04:11:31;;;;;;;10.85;2.95;;;1.90;99.90;;;;;;12937329;22;20098;-94
2021/01/13 04:16:38;;;;;;;9.52;2.30;;;2.00;99.90;;;;;;12937980;22;20456;-94
2021/01/13 04:21:40;;;;;;;11.05;2.45;;;2.00;99.90;;;;;;12939511;22;20093;-94
2021/01/13 04:26:41;;;;;;;;;;;2.10;99.90;;;;;;12914591;22;20043;-94
2021/01/13 04:31:43;;;;;;;11.63;2.53;;;2.10;99.90;;;;;;12963641;22;19982;-93
2021/01/13 04:36:50;;;;;;;10.75;2.17;;;2.20;99.90;;;;;;12913855;22;20020;-95
2021/01/13 04:41:59;;;;;;;9.75;2.17;;;2.40;99.90;;;;;;12939071;22;20024;-95
2021/01/13 04:47:09;;;;;;;10.93;2.03;;;2.40;99.90;;;;;;12938017;22;20032;-95
2021/01/13 04:52:18;;;;;;;5.63;2.03;;;2.50;99.90;;;;;;12964440;22;20028;-95
2021/01/13 04:58:07;;;;;;;8.05;2.10;;;2.50;99.90;;;;;;12913345;22;20031;-95
2021/01/13 08:13:39;;;;;;;14.93;4.32;;;1.60;99.90;;;;;;13043249;22;20022;-91
2021/01/13 08:19:28;;;;;;;11.32;3.35;;;1.60;99.90;;;;;;13002079;22;20015;-91
2021/01/13 08:24:43;;;;;;;11.27;3.58;;;1.60;99.90;;;;;;13027661;22;20019;-92
2021/01/13 08:29:57;;;;;;;14.52;3.25;;;1.40;99.90;;;;;;13000908;22;20042;-91
2021/01/13 08:35:08;;;;;;;13.57;4.15;;;1.50;99.90;;;;;;13001882;22;20043;-92
2021/01/13 08:40:28;;;;;;;9.82;3.28;;;1.60;99.90;;;;;;13002013;22;20094;-93
2021/01/13 08:45:45;;;;;;;11.65;4.00;;;1.70;99.90;;;;;;12980361;22;20019;-92
2021/01/13 08:51:05;;;;;;;10.60;3.95;;;1.80;99.90;;;;;;13005873;22;20456;-91
2021/01/13 08:56:07;;;;;;;10.02;4.30;;;1.80;99.90;;;;;;13056289;22;20023;-92
2021/01/13 09:01:09;;;;;;;16.92;4.10;;;1.80;99.90;;;;;;12955185;22;20020;-91
2021/01/13 09:06:23;;;;;;;21.23;4.20;;;1.90;99.90;;;;;;13030944;22;20019;-91
2021/01/13 09:11:36;;;;;;;14.10;4.00;;;1.90;99.90;;;;;;12954057;22;20023;-92
2021/01/13 09:16:52;;;;;;;15.18;4.55;;;1.90;99.90;;;;;;13003830;22;20019;-92
2021/01/13 09:22:00;;;;;;;11.48;3.80;;;2.10;99.90;;;;;;12982286;22;20023;-92
2021/01/13 09:27:05;;;;;;;13.77;4.07;;;2.20;99.90;;;;;;13005534;22;20019;-91
2021/01/13 09:32:15;;;;;;;10.40;3.75;;;2.40;99.90;;;;;;13004493;22;20030;-92
2021/01/13 09:37:22;;;;;;;9.05;3.63;;;2.80;99.90;;;;;;12981324;22;20455;-92
2021/01/13 09:42:37;;;;;;;7.78;3.63;;;3.30;99.90;;;;;;12982541;22;20019;-93
2021/01/13 09:47:40;;;;;;;7.60;2.97;;;3.00;99.90;;;;;;13006094;22;20047;-93
2021/01/13 09:52:47;;;;;;;8.45;3.63;;;2.70;99.90;;;;;;13003355;22;20022;-91
2021/01/13 09:58:15;;;;;;;10.77;3.22;;;2.70;99.90;;;;;;12979270;22;20042;-91
2021/01/13 10:03:18;;;;;;;14.93;4.18;;;2.80;99.90;;;;;;13005056;22;20023;-92
2021/01/13 10:08:29;;;;;;;13.10;4.18;;;2.80;99.90;;;;;;12953884;22;20484;-92
2021/01/13 10:13:33;;;;;;;15.43;4.97;;;2.90;99.90;;;;;;13004499;22;20051;-93
2021/01/13 10:18:53;;;;;;;14.38;5.00;;;2.90;99.90;;;;;;12980752;22;20529;-92
2021/01/13 10:23:54;;;;;;;13.63;4.03;;;3.00;99.90;;;;;;13004768;22;20023;-93
2021/01/13 10:28:57;;;;;;;;;;;3.00;99.90;;;;;;12979816;22;20088;-92
2021/01/13 10:33:59;;;;;;;14.80;5.05;;;3.10;99.90;;;;;;13003458;22;19990;-93
2021/01/13 10:39:15;;;;;;;10.18;3.65;;;3.30;99.90;;;;;;13003372;22;20456;-92
2021/01/13 10:44:25;;;;;;;14.32;4.30;;;3.20;99.90;;;;;;13003847;22;20077;-92
2021/01/13 10:49:32;;;;;;;9.55;4.45;;;3.40;99.90;;;;;;13003309;22;20103;-93
2021/01/13 10:54:35;;;;;;;9.40;4.28;;;3.60;99.90;;;;;;13055643;22;20076;-93
2021/01/13 10:59:40;;;;;;;14.00;4.28;;;3.70;99.90;;;;;;13003577;22;20026;-92
2021/01/13 11:04:44;;;;;;;11.30;3.78;;;3.60;99.90;;;;;;12979359;22;20148;-93
2021/01/13 11:09:49;;;;;;;16.52;4.70;;;3.60;99.90;;;;;;12978381;22;20027;-93
2021/01/13 11:14:53;;;;;;;20.77;4.65;;;3.60;99.90;;;;;;12938965;22;20019;-92
2021/01/13 23:35:19;;;;;;;8.30;1.83;;;3.00;99.90;;;;;;13013005;22;20102;-93
2021/01/13 23:40:24;;;;;;;21.52;4.93;;;2.90;99.90;;;;;;13004326;22;20090;-94
2021/01/13 23:45:25;;;;;;;9.18;1.88;;;2.90;99.90;;;;;;13002670;22;20020;-93
2021/01/13 23:50:30;;;;;;;11.00;2.60;;;2.90;99.90;;;;;;12978921;22;20023;-93
2021/01/13 23:55:31;;;;;;;7.13;1.73;;;2.80;99.90;;;;;;13002303;22;20077;-92
